sensor_id;sensor_type;location;lat;lon;timestamp;pressure;altitude;pressure_sealevel;temperature;humidity
54270;BME280;40181;51.560;13.000;2024-03-25T00:01:59;99107.97;;;4.98;100.00
54270;BME280;40181;51.560;13.000;2024-03-25T00:04:26;99120.22;;;5.04;100.00
54270;BME280;40181;51.560;13.000;2024-03-25T00:06:52;99105.44;;;5.02;100.00
54270;BME280;40181;51.560;13.000;2024-03-25T00:09:19;99104.69;;;5.12;100.00
54270;BME280;40181;51.560;13.000;2024-03-25T00:11:45;99101.94;;;5.01;100.00
54270;BME280;40181;51.560;13.000;2024-03-25T00:14:12;99110.69;;;5.08;100.00
54270;BME280;40181;51.560;13.000;2024-03-25T00:16:38;99113.97;;;4.91;100.00
54270;BME280;40181;51.560;13.000;2024-03-25T00:19:07;99116.78;;;5.08;100.00
54270;BME280;40181;51.560;13.000;2024-03-25T00:21:34;99109.63;;;4.92;100.00
54270;BME280;40181;51.560;13.000;2024-03-25T00:24:00;99116.84;;;5.13;100.00
54270;BME280;40181;51.560;13.000;2024-03-25T00:26:27;99117.44;;;4.92;100.00
54270;BME280;40181;51.560;13.000;2024-03-25T00:28:53;99116.41;;;4.77;100.00
54270;BME280;40181;51.560;13.000;2024-03-25T00:31:20;99129.78;;;5.05;100.00
54270;BME280;40181;51.560;13.000;2024-03-25T00:33:46;99134.91;;;5.01;100.00
54270;BME280;40181;51.560;13.000;2024-03-25T00:36:15;99140.94;;;4.99;100.00
54270;BME280;40181;51.560;13.000;2024-03-25T00:38:42;99134.91;;;5.01;100.00
54270;BME280;40181;51.560;13.000;2024-03-25T00:41:09;99142.78;;;5.05;100.00
54270;BME280;40181;51.560;13.000;2024-03-25T00:43:35;99141.88;;;5.02;100.00
54270;BME280;40181;51.560;13.000;2024-03-25T00:46:02;99142.56;;;4.90;100.00
54270;BME280;40181;51.560;13.000;2024-03-25T00:48:28;99159.91;;;4.89;100.00
54270;BME280;40181;51.560;13.000;2024-03-25T00:50:55;99149.66;;;5.03;100.00
54270;BME280;40181;51.560;13.000;2024-03-25T00:53:24;99153.69;;;4.78;100.00
54270;BME280;40181;51.560;13.000;2024-03-25T00:55:51;99146.09;;;4.95;100.00
54270;BME280;40181;51.560;13.000;2024-03-25T00:58:17;99148.66;;;4.92;100.00
54270;BME280;40181;51.560;13.000;2024-03-25T01:00:44;99153.00;;;4.91;100.00
54270;BME280;40181;51.560;13.000;2024-03-25T01:03:10;99153.78;;;4.84;100.00
54270;BME280;40181;51.560;13.000;2024-03-25T01:05:37;99151.03;;;4.76;100.00
54270;BME280;40181;51.560;13.000;2024-03-25T01:08:04;99157.84;;;4.66;100.00
54270;BME280;40181;51.560;13.000;2024-03-25T01:10:33;99163.25;;;4.80;100.00
54270;BME280;40181;51.560;13.000;2024-03-25T01:13:00;99159.78;;;4.78;100.00
54270;BME280;40181;51.560;13.000;2024-03-25T01:15:26;99155.41;;;4.77;100.00
54270;BME280;40181;51.560;13.000;2024-03-25T01:17:53;99156.59;;;5.01;100.00
54270;BME280;40181;51.560;13.000;2024-03-25T01:20:20;99149.59;;;4.95;100.00
54270;BME280;40181;51.560;13.000;2024-03-25T01:22:46;99159.66;;;4.72;100.00
54270;BME280;40181;51.560;13.000;2024-03-25T01:25:13;99153.63;;;4.73;100.00
54270;BME280;40181;51.560;13.000;2024-03-25T01:27:42;99163.31;;;4.85;100.00
54270;BME280;40181;51.560;13.000;2024-03-25T01:30:10;99160.66;;;4.80;100.00
54270;BME280;40181;51.560;13.000;2024-03-25T01:32:37;99164.22;;;4.87;100.00
54270;BME280;40181;51.560;13.000;2024-03-25T01:35:05;99174.72;;;4.95;100.00
54270;BME280;40181;51.560;13.000;2024-03-25T01:37:32;99169.38;;;4.84;100.00
54270;BME280;40181;51.560;13.000;2024-03-25T01:39:59;99167.72;;;4.89;100.00
54270;BME280;40181;51.560;13.000;2024-03-25T01:42:25;99168.59;;;4.90;100.00
54270;BME280;40181;51.560;13.000;2024-03-25T01:44:55;99178.06;;;4.83;100.00
54270;BME280;40181;51.560;13.000;2024-03-25T01:47:21;99192.66;;;4.76;100.00
54270;BME280;40181;51.560;13.000;2024-03-25T01:49:48;99182.34;;;4.79;100.00
54270;BME280;40181;51.560;13.000;2024-03-25T01:52:15;99198.75;;;4.77;100.00
54270;BME280;40181;51.560;13.000;2024-03-25T01:54:42;99190.94;;;4.74;100.00
54270;BME280;40181;51.560;13.000;2024-03-25T01:57:08;99183.13;;;4.75;100.00
54270;BME280;40181;51.560;13.000;2024-03-25T01:59:35;99190.28;;;4.89;100.00
54270;BME280;40181;51.560;13.000;2024-03-25T02:02:05;99204.81;;;4.76;100.00
54270;BME280;40181;51.560;13.000;2024-03-25T02:04:32;99182.84;;;4.56;100.00
54270;BME280;40181;51.560;13.000;2024-03-25T02:06:58;99194.44;;;4.77;100.00
54270;BME280;40181;51.560;13.000;2024-03-25T02:09:26;99201.66;;;4.97;100.00
54270;BME280;40181;51.560;13.000;2024-03-25T02:11:53;99195.34;;;4.81;100.00
54270;BME280;40181;51.560;13.000;2024-03-25T02:14:20;99221.53;;;4.92;100.00
54270;BME280;40181;51.560;13.000;2024-03-25T02:16:47;99211.97;;;4.91;100.00
54270;BME280;40181;51.560;13.000;2024-03-25T02:19:17;99208.22;;;4.70;100.00
54270;BME280;40181;51.560;13.000;2024-03-25T02:21:44;99223.13;;;4.82;100.00
54270;BME280;40181;51.560;13.000;2024-03-25T02:24:11;99216.09;;;4.75;100.00
54270;BME280;40181;51.560;13.000;2024-03-25T02:26:41;99216.31;;;4.92;100.00
54270;BME280;40181;51.560;13.000;2024-03-25T02:29:09;99222.50;;;4.97;100.00
54270;BME280;40181;51.560;13.000;2024-03-25T02:31:35;99232.91;;;4.97;100.00
54270;BME280;40181;51.560;13.000;2024-03-25T02:34:02;99223.25;;;4.90;100.00
54270;BME280;40181;51.560;13.000;2024-03-25T02:36:28;99222.56;;;5.03;100.00
54270;BME280;40181;51.560;13.000;2024-03-25T02:38:55;99235.59;;;5.05;100.00
54270;BME280;40181;51.560;13.000;2024-03-25T02:41:24;99229.53;;;5.06;100.00
54270;BME280;40181;51.560;13.000;2024-03-25T02:43:53;99234.75;;;5.06;100.00
54270;BME280;40181;51.560;13.000;2024-03-25T02:46:20;99236.34;;;4.97;100.00
54270;BME280;40181;51.560;13.000;2024-03-25T02:48:46;99243.47;;;5.09;100.00
54270;BME280;40181;51.560;13.000;2024-03-25T02:51:13;99239.19;;;5.13;100.00
54270;BME280;40181;51.560;13.000;2024-03-25T02:53:39;99251.47;;;5.23;100.00
54270;BME280;40181;51.560;13.000;2024-03-25T02:56:06;99257.47;;;5.18;100.00
54270;BME280;40181;51.560;13.000;2024-03-25T02:58:32;99257.38;;;5.10;100.00
54270;BME280;40181;51.560;13.000;2024-03-25T03:01:01;99265.06;;;5.02;100.00
54270;BME280;40181;51.560;13.000;2024-03-25T03:03:28;99253.09;;;5.15;100.00
54270;BME280;40181;51.560;13.000;2024-03-25T03:05:54;99250.38;;;5.04;100.00
54270;BME280;40181;51.560;13.000;2024-03-25T03:08:21;99266.06;;;5.09;100.00
54270;BME280;40181;51.560;13.000;2024-03-25T03:10:47;99264.91;;;4.91;100.00
54270;BME280;40181;51.560;13.000;2024-03-25T03:13:14;99271.19;;;5.06;100.00
54270;BME280;40181;51.560;13.000;2024-03-25T03:15:43;99274.69;;;5.08;100.00
54270;BME280;40181;51.560;13.000;2024-03-25T03:18:12;99274.69;;;5.08;100.00
54270;BME280;40181;51.560;13.000;2024-03-25T03:20:39;99282.31;;;4.95;100.00
54270;BME280;40181;51.560;13.000;2024-03-25T03:23:05;99280.84;;;5.13;100.00
54270;BME280;40181;51.560;13.000;2024-03-25T03:25:32;99296.38;;;5.05;100.00
54270;BME280;40181;51.560;13.000;2024-03-25T03:27:58;99286.81;;;5.06;100.00
54270;BME280;40181;51.560;13.000;2024-03-25T03:30:25;99301.56;;;5.07;100.00
54270;BME280;40181;51.560;13.000;2024-03-25T03:32:51;99289.34;;;5.01;100.00
54270;BME280;40181;51.560;13.000;2024-03-25T03:35:20;99307.78;;;5.14;100.00
54270;BME280;40181;51.560;13.000;2024-03-25T03:37:47;99298.19;;;5.11;100.00
54270;BME280;40181;51.560;13.000;2024-03-25T03:40:14;99290.50;;;5.20;100.00
54270;BME280;40181;51.560;13.000;2024-03-25T03:42:41;99301.50;;;5.02;100.00
54270;BME280;40181;51.560;13.000;2024-03-25T03:45:07;99315.50;;;5.09;100.00
54270;BME280;40181;51.560;13.000;2024-03-25T03:47:34;99322.50;;;5.13;100.00
54270;BME280;40181;51.560;13.000;2024-03-25T03:50:01;99328.50;;;5.07;100.00
54270;BME280;40181;51.560;13.000;2024-03-25T03:52:30;99334.50;;;5.05;100.00
54270;BME280;40181;51.560;13.000;2024-03-25T03:54:56;99326.59;;;4.97;100.00
54270;BME280;40181;51.560;13.000;2024-03-25T03:57:23;99337.00;;;4.98;100.00
54270;BME280;40181;51.560;13.000;2024-03-25T03:59:50;99332.81;;;5.05;100.00
54270;BME280;40181;51.560;13.000;2024-03-25T04:02:16;99338.69;;;4.95;100.00
54270;BME280;40181;51.560;13.000;2024-03-25T04:04:43;99340.44;;;4.94;100.00
54270;BME280;40181;51.560;13.000;2024-03-25T04:07:10;99335.31;;;4.99;100.00
54270;BME280;40181;51.560;13.000;2024-03-25T04:09:39;99342.13;;;4.94;100.00
54270;BME280;40181;51.560;13.000;2024-03-25T04:12:05;99352.63;;;4.97;100.00
54270;BME280;40181;51.560;13.000;2024-03-25T04:14:32;99346.44;;;4.92;100.00
54270;BME280;40181;51.560;13.000;2024-03-25T04:16:59;99357.06;;;5.03;100.00
54270;BME280;40181;51.560;13.000;2024-03-25T04:19:26;99359.50;;;4.95;100.00
54270;BME280;40181;51.560;13.000;2024-03-25T04:21:53;99360.34;;;4.94;100.00
54270;BME280;40181;51.560;13.000;2024-03-25T04:24:20;99351.84;;;5.03;100.00
54270;BME280;40181;51.560;13.000;2024-03-25T04:26:49;99372.53;;;4.95;100.00
54270;BME280;40181;51.560;13.000;2024-03-25T04:29:15;99368.28;;;5.00;100.00
54270;BME280;40181;51.560;13.000;2024-03-25T04:31:42;99369.03;;;4.93;99.97
54270;BME280;40181;51.560;13.000;2024-03-25T04:34:08;99374.38;;;5.02;99.67
54270;BME280;40181;51.560;13.000;2024-03-25T04:36:35;99368.41;;;5.08;99.42
54270;BME280;40181;51.560;13.000;2024-03-25T04:39:02;99375.13;;;4.93;99.37
54270;BME280;40181;51.560;13.000;2024-03-25T04:41:28;99387.56;;;5.11;99.34
54270;BME280;40181;51.560;13.000;2024-03-25T04:43:57;99383.94;;;5.02;99.23
54270;BME280;40181;51.560;13.000;2024-03-25T04:46:24;99392.75;;;5.10;99.02
54270;BME280;40181;51.560;13.000;2024-03-25T04:48:50;99398.63;;;4.98;99.30
54270;BME280;40181;51.560;13.000;2024-03-25T04:51:17;99394.16;;;4.91;99.74
54270;BME280;40181;51.560;13.000;2024-03-25T04:53:43;99394.34;;;5.02;99.65
54270;BME280;40181;51.560;13.000;2024-03-25T04:56:10;99398.53;;;4.93;99.47
54270;BME280;40181;51.560;13.000;2024-03-25T04:58:36;99403.50;;;4.81;99.63
54270;BME280;40181;51.560;13.000;2024-03-25T05:01:06;99397.84;;;5.04;99.99
54270;BME280;40181;51.560;13.000;2024-03-25T05:03:33;99409.44;;;5.21;99.21
54270;BME280;40181;51.560;13.000;2024-03-25T05:05:59;99424.41;;;4.85;99.43
54270;BME280;40181;51.560;13.000;2024-03-25T05:08:26;99419.16;;;4.82;99.74
54270;BME280;40181;51.560;13.000;2024-03-25T05:10:52;99418.47;;;4.93;99.57
54270;BME280;40181;51.560;13.000;2024-03-25T05:13:19;99420.19;;;4.91;99.76
54270;BME280;40181;51.560;13.000;2024-03-25T05:15:49;99421.16;;;4.97;99.33
54270;BME280;40181;51.560;13.000;2024-03-25T05:18:19;99423.69;;;4.93;99.44
54270;BME280;40181;51.560;13.000;2024-03-25T05:20:45;99442.88;;;4.99;99.44
54270;BME280;40181;51.560;13.000;2024-03-25T05:23:12;99446.25;;;4.94;99.56
54270;BME280;40181;51.560;13.000;2024-03-25T05:25:38;99441.03;;;4.92;100.00
54270;BME280;40181;51.560;13.000;2024-03-25T05:28:05;99445.59;;;5.04;99.63
54270;BME280;40181;51.560;13.000;2024-03-25T05:30:31;99446.50;;;5.06;99.69
54270;BME280;40181;51.560;13.000;2024-03-25T05:32:58;99455.88;;;4.98;99.65
54270;BME280;40181;51.560;13.000;2024-03-25T05:35:27;99454.81;;;4.87;100.00
54270;BME280;40181;51.560;13.000;2024-03-25T05:37:54;99454.06;;;4.94;100.00
54270;BME280;40181;51.560;13.000;2024-03-25T05:40:20;99459.72;;;5.19;98.93
54270;BME280;40181;51.560;13.000;2024-03-25T05:42:47;99467.25;;;5.03;99.34
54270;BME280;40181;51.560;13.000;2024-03-25T05:45:13;99459.50;;;5.06;98.31
54270;BME280;40181;51.560;13.000;2024-03-25T05:47:40;99474.97;;;4.97;98.60
54270;BME280;40181;51.560;13.000;2024-03-25T05:50:07;99480.22;;;5.00;98.91
54270;BME280;40181;51.560;13.000;2024-03-25T05:52:36;99467.88;;;4.90;98.79
54270;BME280;40181;51.560;13.000;2024-03-25T05:55:04;99466.50;;;5.09;99.16
54270;BME280;40181;51.560;13.000;2024-03-25T05:57:30;99475.03;;;5.03;99.04
54270;BME280;40181;51.560;13.000;2024-03-25T05:59:57;99485.59;;;5.09;98.82
54270;BME280;40181;51.560;13.000;2024-03-25T06:02:24;99485.53;;;5.06;98.89
54270;BME280;40181;51.560;13.000;2024-03-25T06:04:50;99481.19;;;5.07;99.03
54270;BME280;40181;51.560;13.000;2024-03-25T06:07:17;99492.34;;;4.99;99.88
54270;BME280;40181;51.560;13.000;2024-03-25T06:09:46;99495.78;;;4.98;99.60
54270;BME280;40181;51.560;13.000;2024-03-25T06:12:12;99508.72;;;4.92;99.73
54270;BME280;40181;51.560;13.000;2024-03-25T06:14:39;99510.38;;;4.90;99.40
54270;BME280;40181;51.560;13.000;2024-03-25T06:17:05;99517.41;;;4.94;99.17
54270;BME280;40181;51.560;13.000;2024-03-25T06:19:32;99513.91;;;4.94;99.12
54270;BME280;40181;51.560;13.000;2024-03-25T06:21:58;99521.94;;;5.05;98.81
54270;BME280;40181;51.560;13.000;2024-03-25T06:24:25;99522.44;;;4.85;99.32
54270;BME280;40181;51.560;13.000;2024-03-25T06:26:54;99520.88;;;4.95;99.93
54270;BME280;40181;51.560;13.000;2024-03-25T06:29:21;99521.72;;;4.94;99.24
54270;BME280;40181;51.560;13.000;2024-03-25T06:31:47;99523.66;;;5.03;98.79
54270;BME280;40181;51.560;13.000;2024-03-25T06:34:29;99535.75;;;5.01;99.07
54270;BME280;40181;51.560;13.000;2024-03-25T06:36:55;99536.53;;;4.96;99.22
54270;BME280;40181;51.560;13.000;2024-03-25T06:39:22;99554.97;;;5.07;98.71
54270;BME280;40181;51.560;13.000;2024-03-25T06:41:49;99540.56;;;5.26;99.08
54270;BME280;40181;51.560;13.000;2024-03-25T06:44:18;99541.41;;;5.25;98.22
54270;BME280;40181;51.560;13.000;2024-03-25T06:46:44;99546.56;;;5.22;97.55
54270;BME280;40181;51.560;13.000;2024-03-25T06:49:11;99545.06;;;5.35;97.23
54270;BME280;40181;51.560;13.000;2024-03-25T06:51:37;99549.09;;;5.18;97.33
54270;BME280;40181;51.560;13.000;2024-03-25T06:54:04;99557.94;;;5.26;97.22
54270;BME280;40181;51.560;13.000;2024-03-25T06:56:30;99556.94;;;5.21;97.34
54270;BME280;40181;51.560;13.000;2024-03-25T06:58:57;99558.34;;;5.49;96.22
54270;BME280;40181;51.560;13.000;2024-03-25T07:01:26;99565.78;;;5.28;97.04
54270;BME280;40181;51.560;13.000;2024-03-25T07:03:53;99559.53;;;5.19;97.60
54270;BME280;40181;51.560;13.000;2024-03-25T07:06:19;99576.91;;;5.20;97.48
54270;BME280;40181;51.560;13.000;2024-03-25T07:08:46;99577.22;;;5.37;96.80
54270;BME280;40181;51.560;13.000;2024-03-25T07:11:13;99575.34;;;5.30;96.36
54270;BME280;40181;51.560;13.000;2024-03-25T07:13:39;99581.75;;;5.48;96.57
54270;BME280;40181;51.560;13.000;2024-03-25T07:16:06;99589.31;;;5.32;96.71
54270;BME280;40181;51.560;13.000;2024-03-25T07:18:35;99576.50;;;5.45;96.42
54270;BME280;40181;51.560;13.000;2024-03-25T07:21:02;99592.91;;;5.39;96.59
54270;BME280;40181;51.560;13.000;2024-03-25T07:23:29;99583.97;;;5.26;98.26
54270;BME280;40181;51.560;13.000;2024-03-25T07:25:55;99587.44;;;5.26;98.68
54270;BME280;40181;51.560;13.000;2024-03-25T07:28:22;99594.69;;;5.42;99.03
54270;BME280;40181;51.560;13.000;2024-03-25T07:30:49;99596.06;;;5.22;100.00
54270;BME280;40181;51.560;13.000;2024-03-25T07:33:16;99595.69;;;5.48;100.00
54270;BME280;40181;51.560;13.000;2024-03-25T07:35:45;99596.44;;;5.43;100.00
54270;BME280;40181;51.560;13.000;2024-03-25T07:38:12;99596.84;;;5.66;99.70
54270;BME280;40181;51.560;13.000;2024-03-25T07:40:38;99604.47;;;5.55;99.58
54270;BME280;40181;51.560;13.000;2024-03-25T07:43:05;99601.28;;;5.72;99.31
54270;BME280;40181;51.560;13.000;2024-03-25T07:45:31;99616.78;;;5.62;99.07
54270;BME280;40181;51.560;13.000;2024-03-25T07:47:58;99607.28;;;5.66;97.87
54270;BME280;40181;51.560;13.000;2024-03-25T07:50:24;99621.16;;;5.66;97.62
54270;BME280;40181;51.560;13.000;2024-03-25T07:52:54;99613.19;;;5.56;97.47
54270;BME280;40181;51.560;13.000;2024-03-25T07:55:20;99620.88;;;5.49;97.59
54270;BME280;40181;51.560;13.000;2024-03-25T07:57:47;99618.41;;;5.57;96.86
54270;BME280;40181;51.560;13.000;2024-03-25T08:00:14;99629.84;;;5.64;97.16
54270;BME280;40181;51.560;13.000;2024-03-25T08:02:41;99628.03;;;5.61;96.44
54270;BME280;40181;51.560;13.000;2024-03-25T08:05:07;99629.06;;;5.70;95.99
54270;BME280;40181;51.560;13.000;2024-03-25T08:07:34;99623.94;;;5.74;95.61
54270;BME280;40181;51.560;13.000;2024-03-25T08:10:04;99628.94;;;5.63;96.11
54270;BME280;40181;51.560;13.000;2024-03-25T08:12:31;99617.88;;;5.75;95.84
54270;BME280;40181;51.560;13.000;2024-03-25T08:14:58;99629.19;;;5.77;95.73
54270;BME280;40181;51.560;13.000;2024-03-25T08:17:24;99638.88;;;5.85;95.67
54270;BME280;40181;51.560;13.000;2024-03-25T08:19:51;99640.78;;;5.95;95.50
54270;BME280;40181;51.560;13.000;2024-03-25T08:22:17;99633.00;;;5.97;94.84
54270;BME280;40181;51.560;13.000;2024-03-25T08:24:44;99632.16;;;5.98;94.93
54270;BME280;40181;51.560;13.000;2024-03-25T08:27:13;99637.28;;;5.93;94.46
54270;BME280;40181;51.560;13.000;2024-03-25T08:29:40;99640.22;;;6.08;93.67
54270;BME280;40181;51.560;13.000;2024-03-25T08:32:06;99636.44;;;5.94;93.28
54270;BME280;40181;51.560;13.000;2024-03-25T08:34:33;99639.09;;;5.97;93.11
54270;BME280;40181;51.560;13.000;2024-03-25T08:36:59;99658.63;;;6.18;93.17
54270;BME280;40181;51.560;13.000;2024-03-25T08:39:26;99644.66;;;6.16;92.37
54270;BME280;40181;51.560;13.000;2024-03-25T08:41:52;99643.72;;;6.12;92.33
54270;BME280;40181;51.560;13.000;2024-03-25T08:44:22;99654.25;;;6.17;91.30
54270;BME280;40181;51.560;13.000;2024-03-25T08:46:48;99655.38;;;6.34;91.72
54270;BME280;40181;51.560;13.000;2024-03-25T08:49:15;99652.84;;;6.39;90.54
54270;BME280;40181;51.560;13.000;2024-03-25T08:51:41;99666.88;;;6.46;91.05
54270;BME280;40181;51.560;13.000;2024-03-25T08:54:08;99668.75;;;6.55;91.57
54270;BME280;40181;51.560;13.000;2024-03-25T08:56:34;99666.66;;;6.32;89.87
54270;BME280;40181;51.560;13.000;2024-03-25T08:59:01;99666.75;;;6.38;90.38
54270;BME280;40181;51.560;13.000;2024-03-25T09:01:30;99671.25;;;6.47;89.22
54270;BME280;40181;51.560;13.000;2024-03-25T09:03:57;99677.19;;;6.38;90.10
54270;BME280;40181;51.560;13.000;2024-03-25T09:06:23;99681.72;;;6.48;89.63
54270;BME280;40181;51.560;13.000;2024-03-25T09:08:50;99692.88;;;6.40;88.56
54270;BME280;40181;51.560;13.000;2024-03-25T09:11:31;99681.38;;;6.30;87.88
54270;BME280;40181;51.560;13.000;2024-03-25T09:13:58;99691.22;;;6.46;88.13
54270;BME280;40181;51.560;13.000;2024-03-25T09:16:25;99688.66;;;6.48;88.05
54270;BME280;40181;51.560;13.000;2024-03-25T09:18:54;99700.00;;;6.50;86.72
54270;BME280;40181;51.560;13.000;2024-03-25T09:21:21;99700.72;;;6.41;86.08
54270;BME280;40181;51.560;13.000;2024-03-25T09:23:47;99704.53;;;6.62;87.15
54270;BME280;40181;51.560;13.000;2024-03-25T09:26:14;99692.38;;;6.64;87.11
54270;BME280;40181;51.560;13.000;2024-03-25T09:28:41;99702.81;;;6.62;85.80
54270;BME280;40181;51.560;13.000;2024-03-25T09:31:07;99704.84;;;6.82;85.43
54270;BME280;40181;51.560;13.000;2024-03-25T09:33:34;99704.97;;;6.91;85.08
54270;BME280;40181;51.560;13.000;2024-03-25T09:36:03;99709.97;;;6.76;84.36
54270;BME280;40181;51.560;13.000;2024-03-25T09:38:30;99710.91;;;6.83;84.73
54270;BME280;40181;51.560;13.000;2024-03-25T09:40:57;99700.84;;;7.08;85.19
54270;BME280;40181;51.560;13.000;2024-03-25T09:43:27;99700.16;;;7.21;86.36
54270;BME280;40181;51.560;13.000;2024-03-25T09:45:59;99706.03;;;7.04;86.11
54270;BME280;40181;51.560;13.000;2024-03-25T09:48:26;99701.78;;;7.13;85.04
54270;BME280;40181;51.560;13.000;2024-03-25T09:50:52;99712.16;;;7.06;84.29
54270;BME280;40181;51.560;13.000;2024-03-25T09:53:22;99725.56;;;6.71;83.58
54270;BME280;40181;51.560;13.000;2024-03-25T09:55:49;99713.59;;;6.87;83.02
54270;BME280;40181;51.560;13.000;2024-03-25T09:58:15;99720.88;;;7.07;83.04
54270;BME280;40181;51.560;13.000;2024-03-25T10:00:44;99711.22;;;7.03;81.32
54270;BME280;40181;51.560;13.000;2024-03-25T10:03:11;99710.50;;;7.13;80.07
54270;BME280;40181;51.560;13.000;2024-03-25T10:05:38;99708.84;;;7.18;79.15
54270;BME280;40181;51.560;13.000;2024-03-25T10:08:05;99709.69;;;7.19;78.89
54270;BME280;40181;51.560;13.000;2024-03-25T10:10:36;99708.19;;;7.35;77.10
54270;BME280;40181;51.560;13.000;2024-03-25T10:13:03;99715.97;;;7.32;77.14
54270;BME280;40181;51.560;13.000;2024-03-25T10:15:30;99709.84;;;7.30;76.73
54270;BME280;40181;51.560;13.000;2024-03-25T10:17:57;99709.81;;;7.28;76.37
54270;BME280;40181;51.560;13.000;2024-03-25T10:20:24;99707.44;;;7.45;77.02
54270;BME280;40181;51.560;13.000;2024-03-25T10:22:51;99713.69;;;7.58;76.87
54270;BME280;40181;51.560;13.000;2024-03-25T10:25:26;99714.31;;;7.39;77.48
54270;BME280;40181;51.560;13.000;2024-03-25T10:27:56;99698.91;;;7.62;76.81
54270;BME280;40181;51.560;13.000;2024-03-25T10:30:24;99707.69;;;7.66;77.97
54270;BME280;40181;51.560;13.000;2024-03-25T10:32:58;99704.00;;;7.51;78.74
54270;BME280;40181;51.560;13.000;2024-03-25T10:35:26;99702.34;;;7.58;79.94
54270;BME280;40181;51.560;13.000;2024-03-25T10:37:55;99719.47;;;7.32;80.05
54270;BME280;40181;51.560;13.000;2024-03-25T10:40:27;99710.91;;;7.44;79.90
54270;BME280;40181;51.560;13.000;2024-03-25T10:43:03;99709.19;;;7.46;80.08
54270;BME280;40181;51.560;13.000;2024-03-25T10:45:30;99721.25;;;7.35;79.49
54270;BME280;40181;51.560;13.000;2024-03-25T10:48:00;99713.75;;;7.65;77.89
54270;BME280;40181;51.560;13.000;2024-03-25T10:50:30;99709.38;;;7.62;77.51
54270;BME280;40181;51.560;13.000;2024-03-25T10:52:57;99703.22;;;7.60;77.84
54270;BME280;40181;51.560;13.000;2024-03-25T10:55:25;99707.94;;;7.92;76.83
54270;BME280;40181;51.560;13.000;2024-03-25T10:57:54;99710.69;;;8.03;76.99
54270;BME280;40181;51.560;13.000;2024-03-25T11:00:23;99707.03;;;7.85;74.49
54270;BME280;40181;51.560;13.000;2024-03-25T11:02:50;99717.59;;;7.98;74.53
54270;BME280;40181;51.560;13.000;2024-03-25T11:05:17;99705.22;;;7.80;74.07
54270;BME280;40181;51.560;13.000;2024-03-25T11:07:44;99716.53;;;7.80;74.48
54270;BME280;40181;51.560;13.000;2024-03-25T11:10:12;99708.66;;;7.79;74.54
54270;BME280;40181;51.560;13.000;2024-03-25T11:12:40;99713.94;;;7.82;73.93
54270;BME280;40181;51.560;13.000;2024-03-25T11:15:08;99717.38;;;7.78;74.00
54270;BME280;40181;51.560;13.000;2024-03-25T11:17:48;99715.59;;;7.73;73.93
54270;BME280;40181;51.560;13.000;2024-03-25T11:20:16;99716.59;;;7.83;73.69
54270;BME280;40181;51.560;13.000;2024-03-25T11:22:49;99719.22;;;7.83;73.34
54270;BME280;40181;51.560;13.000;2024-03-25T11:25:16;99719.25;;;7.88;72.79
54270;BME280;40181;51.560;13.000;2024-03-25T11:27:44;99715.69;;;7.83;72.12
54270;BME280;40181;51.560;13.000;2024-03-25T11:30:11;99714.84;;;7.84;71.58
54270;BME280;40181;51.560;13.000;2024-03-25T11:32:47;99723.53;;;7.81;71.79
54270;BME280;40181;51.560;13.000;2024-03-25T11:35:18;99726.22;;;7.91;71.59
54270;BME280;40181;51.560;13.000;2024-03-25T11:37:45;99719.94;;;7.73;72.06
54270;BME280;40181;51.560;13.000;2024-03-25T11:40:12;99738.97;;;7.59;72.42
54270;BME280;40181;51.560;13.000;2024-03-25T11:42:40;99725.19;;;7.74;72.86
54270;BME280;40181;51.560;13.000;2024-03-25T11:45:13;99734.66;;;7.63;73.39
54270;BME280;40181;51.560;13.000;2024-03-25T11:47:42;99731.97;;;7.60;72.14
54270;BME280;40181;51.560;13.000;2024-03-25T11:50:14;99726.91;;;7.74;71.87
54270;BME280;40181;51.560;13.000;2024-03-25T11:52:41;99724.34;;;7.79;71.28
54270;BME280;40181;51.560;13.000;2024-03-25T11:55:09;99714.16;;;8.02;71.19
54270;BME280;40181;51.560;13.000;2024-03-25T11:57:36;99720.25;;;8.02;71.93
54270;BME280;40181;51.560;13.000;2024-03-25T12:00:03;99717.56;;;7.93;72.97
54270;BME280;40181;51.560;13.000;2024-03-25T12:02:31;99715.81;;;7.94;73.07
54270;BME280;40181;51.560;13.000;2024-03-25T12:05:01;99714.13;;;7.99;73.18
54270;BME280;40181;51.560;13.000;2024-03-25T12:07:28;99713.47;;;8.23;72.91
54270;BME280;40181;51.560;13.000;2024-03-25T12:09:54;99720.34;;;8.09;72.39
54270;BME280;40181;51.560;13.000;2024-03-25T12:12:36;99714.31;;;8.19;72.52
54270;BME280;40181;51.560;13.000;2024-03-25T12:15:04;99717.69;;;8.07;72.11
54270;BME280;40181;51.560;13.000;2024-03-25T12:17:31;99703.00;;;8.23;72.18
54270;BME280;40181;51.560;13.000;2024-03-25T12:20:01;99713.47;;;8.22;72.03
54270;BME280;40181;51.560;13.000;2024-03-25T12:22:30;99709.91;;;8.13;72.95
54270;BME280;40181;51.560;13.000;2024-03-25T12:24:57;99708.44;;;8.42;70.56
54270;BME280;40181;51.560;13.000;2024-03-25T12:27:25;99702.31;;;8.41;69.33
54270;BME280;40181;51.560;13.000;2024-03-25T12:29:58;99703.41;;;8.64;69.03
54270;BME280;40181;51.560;13.000;2024-03-25T12:32:36;99695.69;;;8.87;68.50
54270;BME280;40181;51.560;13.000;2024-03-25T12:35:07;99701.84;;;8.94;68.43
54270;BME280;40181;51.560;13.000;2024-03-25T12:37:34;99708.78;;;8.85;67.04
54270;BME280;40181;51.560;13.000;2024-03-25T12:40:02;99695.75;;;8.99;64.48
54270;BME280;40181;51.560;13.000;2024-03-25T12:42:30;99696.63;;;8.97;63.07
54270;BME280;40181;51.560;13.000;2024-03-25T12:44:57;99699.22;;;8.92;61.99
54270;BME280;40181;51.560;13.000;2024-03-25T12:47:24;99702.63;;;8.82;62.50
54270;BME280;40181;51.560;13.000;2024-03-25T12:49:51;99702.63;;;8.79;63.03
54270;BME280;40181;51.560;13.000;2024-03-25T12:52:20;99698.41;;;9.04;63.67
54270;BME280;40181;51.560;13.000;2024-03-25T12:54:46;99706.22;;;8.95;62.45
54270;BME280;40181;51.560;13.000;2024-03-25T12:57:13;99708.84;;;8.96;61.64
54270;BME280;40181;51.560;13.000;2024-03-25T12:59:39;99707.97;;;8.94;59.81